sensor_id;sensor_type;location;lat;lon;timestamp;temperature;humidity
19868;DHT22;10096;51.112;6.776;2023-07-16T00:00:44;20.20;1.00
19868;DHT22;10096;51.112;6.776;2023-07-16T00:03:12;20.20;1.00
19868;DHT22;10096;51.112;6.776;2023-07-16T00:05:42;20.10;1.00
19868;DHT22;10096;51.112;6.776;2023-07-16T00:08:11;20.20;1.00
19868;DHT22;10096;51.112;6.776;2023-07-16T00:10:38;20.10;1.00
19868;DHT22;10096;51.112;6.776;2023-07-16T00:13:05;19.90;1.00
19868;DHT22;10096;51.112;6.776;2023-07-16T00:15:32;19.90;1.00
19868;DHT22;10096;51.112;6.776;2023-07-16T00:17:59;19.70;1.00
19868;DHT22;10096;51.112;6.776;2023-07-16T00:20:26;19.70;1.00
19868;DHT22;10096;51.112;6.776;2023-07-16T00:22:54;19.80;1.00
19868;DHT22;10096;51.112;6.776;2023-07-16T00:25:24;19.90;1.00
19868;DHT22;10096;51.112;6.776;2023-07-16T00:27:51;19.70;1.00
19868;DHT22;10096;51.112;6.776;2023-07-16T00:30:18;19.70;1.00
19868;DHT22;10096;51.112;6.776;2023-07-16T00:32:45;19.70;1.00
19868;DHT22;10096;51.112;6.776;2023-07-16T00:35:12;19.80;1.00
19868;DHT22;10096;51.112;6.776;2023-07-16T00:37:39;19.60;1.00
19868;DHT22;10096;51.112;6.776;2023-07-16T00:40:07;19.60;1.00
19868;DHT22;10096;51.112;6.776;2023-07-16T00:42:36;19.50;1.00
19868;DHT22;10096;51.112;6.776;2023-07-16T00:45:09;19.50;1.00
19868;DHT22;10096;51.112;6.776;2023-07-16T00:47:37;19.40;1.00
19868;DHT22;10096;51.112;6.776;2023-07-16T00:50:05;19.40;1.00
19868;DHT22;10096;51.112;6.776;2023-07-16T00:52:34;19.50;1.00
19868;DHT22;10096;51.112;6.776;2023-07-16T00:55:02;19.50;1.00
19868;DHT22;10096;51.112;6.776;2023-07-16T00:57:29;19.60;1.00
19868;DHT22;10096;51.112;6.776;2023-07-16T00:59:58;19.50;1.00
19868;DHT22;10096;51.112;6.776;2023-07-16T01:02:28;19.60;1.00
19868;DHT22;10096;51.112;6.776;2023-07-16T01:04:55;19.60;1.00
19868;DHT22;10096;51.112;6.776;2023-07-16T01:07:25;19.40;1.00
19868;DHT22;10096;51.112;6.776;2023-07-16T01:09:54;19.20;1.00
19868;DHT22;10096;51.112;6.776;2023-07-16T01:12:22;19.10;1.00
19868;DHT22;10096;51.112;6.776;2023-07-16T01:14:50;19.00;33.10
19868;DHT22;10096;51.112;6.776;2023-07-16T01:17:20;19.20;56.20
19868;DHT22;10096;51.112;6.776;2023-07-16T01:19:47;19.10;91.70
19868;DHT22;10096;51.112;6.776;2023-07-16T01:22:33;19.00;78.10
19868;DHT22;10096;51.112;6.776;2023-07-16T01:25:28;19.00;54.30
19868;DHT22;10096;51.112;6.776;2023-07-16T01:28:21;19.00;62.60
19868;DHT22;10096;51.112;6.776;2023-07-16T01:30:52;19.00;55.20
19868;DHT22;10096;51.112;6.776;2023-07-16T01:33:20;18.80;67.40
19868;DHT22;10096;51.112;6.776;2023-07-16T01:35:48;18.80;89.40
19868;DHT22;10096;51.112;6.776;2023-07-16T01:38:16;18.90;98.30
19868;DHT22;10096;51.112;6.776;2023-07-16T01:40:44;18.80;99.90
19868;DHT22;10096;51.112;6.776;2023-07-16T01:43:13;18.60;99.90
19868;DHT22;10096;51.112;6.776;2023-07-16T01:45:40;18.70;99.90
19868;DHT22;10096;51.112;6.776;2023-07-16T01:48:16;18.80;99.90
19868;DHT22;10096;51.112;6.776;2023-07-16T01:50:48;18.50;99.90
19868;DHT22;10096;51.112;6.776;2023-07-16T01:53:16;18.60;99.90
19868;DHT22;10096;51.112;6.776;2023-07-16T01:55:43;18.70;99.90
19868;DHT22;10096;51.112;6.776;2023-07-16T01:58:10;18.40;99.90
19868;DHT22;10096;51.112;6.776;2023-07-16T02:00:37;18.60;99.90
19868;DHT22;10096;51.112;6.776;2023-07-16T02:03:04;18.40;99.90
19868;DHT22;10096;51.112;6.776;2023-07-16T02:05:33;18.40;93.70
19868;DHT22;10096;51.112;6.776;2023-07-16T02:08:01;18.40;92.80
19868;DHT22;10096;51.112;6.776;2023-07-16T02:10:28;18.50;72.60
19868;DHT22;10096;51.112;6.776;2023-07-16T02:12:55;18.60;61.40
19868;DHT22;10096;51.112;6.776;2023-07-16T02:15:22;18.60;39.50
19868;DHT22;10096;51.112;6.776;2023-07-16T02:17:50;18.40;20.40
19868;DHT22;10096;51.112;6.776;2023-07-16T02:20:19;18.30;17.10
19868;DHT22;10096;51.112;6.776;2023-07-16T02:22:48;18.40;5.60
19868;DHT22;10096;51.112;6.776;2023-07-16T02:25:15;18.10;1.00
19868;DHT22;10096;51.112;6.776;2023-07-16T02:27:42;18.30;7.70
19868;DHT22;10096;51.112;6.776;2023-07-16T02:30:09;18.30;16.70
19868;DHT22;10096;51.112;6.776;2023-07-16T02:32:36;18.20;4.90
19868;DHT22;10096;51.112;6.776;2023-07-16T02:35:04;18.30;1.00
19868;DHT22;10096;51.112;6.776;2023-07-16T02:37:31;18.30;1.00
19868;DHT22;10096;51.112;6.776;2023-07-16T02:40:01;18.20;1.00
19868;DHT22;10096;51.112;6.776;2023-07-16T02:42:29;18.40;1.00
19868;DHT22;10096;51.112;6.776;2023-07-16T02:44:57;18.40;1.00
19868;DHT22;10096;51.112;6.776;2023-07-16T02:47:24;18.40;1.00
19868;DHT22;10096;51.112;6.776;2023-07-16T02:49:51;18.30;1.00
19868;DHT22;10096;51.112;6.776;2023-07-16T02:52:18;18.60;1.00
19868;DHT22;10096;51.112;6.776;2023-07-16T02:54:45;18.30;1.00
19868;DHT22;10096;51.112;6.776;2023-07-16T02:57:14;18.40;1.00
19868;DHT22;10096;51.112;6.776;2023-07-16T02:59:41;18.50;1.00
19868;DHT22;10096;51.112;6.776;2023-07-16T03:02:08;18.40;1.00
19868;DHT22;10096;51.112;6.776;2023-07-16T03:04:35;18.30;1.00
19868;DHT22;10096;51.112;6.776;2023-07-16T03:07:02;18.40;1.00
19868;DHT22;10096;51.112;6.776;2023-07-16T03:09:29;18.30;1.00
19868;DHT22;10096;51.112;6.776;2023-07-16T03:11:56;18.20;1.00
19868;DHT22;10096;51.112;6.776;2023-07-16T03:14:25;18.20;1.00
19868;DHT22;10096;51.112;6.776;2023-07-16T03:16:52;18.20;1.00
19868;DHT22;10096;51.112;6.776;2023-07-16T03:19:19;18.50;1.00
19868;DHT22;10096;51.112;6.776;2023-07-16T03:21:46;18.20;1.00
19868;DHT22;10096;51.112;6.776;2023-07-16T03:24:14;18.50;1.00
19868;DHT22;10096;51.112;6.776;2023-07-16T03:26:41;18.20;1.00
19868;DHT22;10096;51.112;6.776;2023-07-16T03:29:08;18.30;1.00
19868;DHT22;10096;51.112;6.776;2023-07-16T03:31:37;18.10;1.00
19868;DHT22;10096;51.112;6.776;2023-07-16T03:34:04;18.00;1.00
19868;DHT22;10096;51.112;6.776;2023-07-16T03:36:31;18.10;1.00
19868;DHT22;10096;51.112;6.776;2023-07-16T03:38:58;18.10;1.00
19868;DHT22;10096;51.112;6.776;2023-07-16T03:41:25;18.10;1.00
19868;DHT22;10096;51.112;6.776;2023-07-16T03:43:59;18.00;1.00
19868;DHT22;10096;51.112;6.776;2023-07-16T03:46:26;18.00;1.00
19868;DHT22;10096;51.112;6.776;2023-07-16T03:48:55;18.00;1.00
19868;DHT22;10096;51.112;6.776;2023-07-16T03:51:22;18.10;1.00
19868;DHT22;10096;51.112;6.776;2023-07-16T03:53:49;18.30;1.00
19868;DHT22;10096;51.112;6.776;2023-07-16T03:56:18;18.20;1.00
19868;DHT22;10096;51.112;6.776;2023-07-16T03:58:47;18.30;1.00
19868;DHT22;10096;51.112;6.776;2023-07-16T04:01:14;18.50;1.00
19868;DHT22;10096;51.112;6.776;2023-07-16T04:03:41;18.90;99.90
19868;DHT22;10096;51.112;6.776;2023-07-16T04:06:12;19.00;99.90
19868;DHT22;10096;51.112;6.776;2023-07-16T04:08:39;19.30;99.90
19868;DHT22;10096;51.112;6.776;2023-07-16T04:11:14;19.70;99.90
19868;DHT22;10096;51.112;6.776;2023-07-16T04:13:42;19.90;99.90
19868;DHT22;10096;51.112;6.776;2023-07-16T04:16:10;20.40;99.90
19868;DHT22;10096;51.112;6.776;2023-07-16T04:18:37;20.60;99.90
19868;DHT22;10096;51.112;6.776;2023-07-16T04:21:04;21.00;99.90
19868;DHT22;10096;51.112;6.776;2023-07-16T04:23:33;21.30;99.90
19868;DHT22;10096;51.112;6.776;2023-07-16T04:26:00;21.60;99.90
19868;DHT22;10096;51.112;6.776;2023-07-16T04:28:27;21.90;99.90
19868;DHT22;10096;51.112;6.776;2023-07-16T04:30:54;22.40;99.90
19868;DHT22;10096;51.112;6.776;2023-07-16T04:33:21;22.80;99.90
19868;DHT22;10096;51.112;6.776;2023-07-16T04:35:50;23.20;99.90
19868;DHT22;10096;51.112;6.776;2023-07-16T04:38:17;23.50;99.90
19868;DHT22;10096;51.112;6.776;2023-07-16T04:40:47;23.70;99.90
19868;DHT22;10096;51.112;6.776;2023-07-16T04:43:14;24.00;99.90
19868;DHT22;10096;51.112;6.776;2023-07-16T04:45:42;24.30;99.90
19868;DHT22;10096;51.112;6.776;2023-07-16T04:48:12;24.10;99.90
19868;DHT22;10096;51.112;6.776;2023-07-16T04:50:39;24.10;99.90
19868;DHT22;10096;51.112;6.776;2023-07-16T04:53:06;24.40;99.90
19868;DHT22;10096;51.112;6.776;2023-07-16T04:55:37;24.60;99.90
19868;DHT22;10096;51.112;6.776;2023-07-16T04:58:06;25.20;99.90
19868;DHT22;10096;51.112;6.776;2023-07-16T05:00:34;25.20;99.90
19868;DHT22;10096;51.112;6.776;2023-07-16T05:03:01;25.40;99.90
19868;DHT22;10096;51.112;6.776;2023-07-16T05:05:28;25.70;99.90
19868;DHT22;10096;51.112;6.776;2023-07-16T05:07:55;25.70;99.90
19868;DHT22;10096;51.112;6.776;2023-07-16T05:10:25;26.20;99.90
19868;DHT22;10096;51.112;6.776;2023-07-16T05:12:52;25.90;99.90
19868;DHT22;10096;51.112;6.776;2023-07-16T05:15:21;26.20;99.90
19868;DHT22;10096;51.112;6.776;2023-07-16T05:17:48;26.40;99.90
19868;DHT22;10096;51.112;6.776;2023-07-16T05:20:16;26.60;99.90
19868;DHT22;10096;51.112;6.776;2023-07-16T05:22:43;26.30;99.90
19868;DHT22;10096;51.112;6.776;2023-07-16T05:25:10;26.00;99.90
19868;DHT22;10096;51.112;6.776;2023-07-16T05:27:38;26.60;99.90
19868;DHT22;10096;51.112;6.776;2023-07-16T05:30:06;27.20;99.90
19868;DHT22;10096;51.112;6.776;2023-07-16T05:32:35;27.20;99.90
19868;DHT22;10096;51.112;6.776;2023-07-16T05:35:03;28.30;99.90
19868;DHT22;10096;51.112;6.776;2023-07-16T05:37:30;28.30;99.90
19868;DHT22;10096;51.112;6.776;2023-07-16T05:39:57;28.30;99.90
19868;DHT22;10096;51.112;6.776;2023-07-16T05:42:24;28.30;99.90
19868;DHT22;10096;51.112;6.776;2023-07-16T05:44:51;28.50;99.90
19868;DHT22;10096;51.112;6.776;2023-07-16T05:47:18;28.60;99.90
19868;DHT22;10096;51.112;6.776;2023-07-16T05:49:47;27.90;99.90
19868;DHT22;10096;51.112;6.776;2023-07-16T05:52:14;27.60;99.90
19868;DHT22;10096;51.112;6.776;2023-07-16T05:54:43;27.80;99.90
19868;DHT22;10096;51.112;6.776;2023-07-16T05:57:10;27.70;99.90
19868;DHT22;10096;51.112;6.776;2023-07-16T05:59:37;27.60;99.90
19868;DHT22;10096;51.112;6.776;2023-07-16T06:02:05;28.50;99.90
19868;DHT22;10096;51.112;6.776;2023-07-16T06:04:32;29.30;99.90
19868;DHT22;10096;51.112;6.776;2023-07-16T06:07:02;29.10;99.90
19868;DHT22;10096;51.112;6.776;2023-07-16T06:09:29;29.30;99.90
19868;DHT22;10096;51.112;6.776;2023-07-16T06:11:59;28.80;99.90
19868;DHT22;10096;51.112;6.776;2023-07-16T06:14:26;28.60;99.90
19868;DHT22;10096;51.112;6.776;2023-07-16T06:16:53;28.50;99.90
19868;DHT22;10096;51.112;6.776;2023-07-16T06:19:20;28.40;99.90
19868;DHT22;10096;51.112;6.776;2023-07-16T06:21:47;28.50;99.90
19868;DHT22;10096;51.112;6.776;2023-07-16T06:24:16;28.70;99.90
19868;DHT22;10096;51.112;6.776;2023-07-16T06:26:43;29.20;99.90
19868;DHT22;10096;51.112;6.776;2023-07-16T06:29:13;28.80;99.90
19868;DHT22;10096;51.112;6.776;2023-07-16T06:31:53;28.40;99.90
19868;DHT22;10096;51.112;6.776;2023-07-16T06:34:20;28.70;99.90
19868;DHT22;10096;51.112;6.776;2023-07-16T06:36:48;28.70;99.90
19868;DHT22;10096;51.112;6.776;2023-07-16T06:39:16;29.10;99.90
19868;DHT22;10096;51.112;6.776;2023-07-16T06:41:44;29.60;99.90
19868;DHT22;10096;51.112;6.776;2023-07-16T06:44:11;29.30;99.90
19868;DHT22;10096;51.112;6.776;2023-07-16T06:46:38;28.50;99.90
19868;DHT22;10096;51.112;6.776;2023-07-16T06:49:05;29.10;99.90
19868;DHT22;10096;51.112;6.776;2023-07-16T06:51:34;30.00;99.90
19868;DHT22;10096;51.112;6.776;2023-07-16T06:54:01;29.90;99.90
19868;DHT22;10096;51.112;6.776;2023-07-16T06:56:30;29.60;99.90
19868;DHT22;10096;51.112;6.776;2023-07-16T06:58:57;28.50;99.90
19868;DHT22;10096;51.112;6.776;2023-07-16T07:01:26;28.00;99.90
19868;DHT22;10096;51.112;6.776;2023-07-16T07:03:53;29.30;99.90
19868;DHT22;10096;51.112;6.776;2023-07-16T07:06:20;30.20;99.90
19868;DHT22;10096;51.112;6.776;2023-07-16T07:08:49;31.00;99.90
19868;DHT22;10096;51.112;6.776;2023-07-16T07:11:18;31.20;99.90
19868;DHT22;10096;51.112;6.776;2023-07-16T07:13:55;30.10;99.90
19868;DHT22;10096;51.112;6.776;2023-07-16T07:16:24;31.00;99.90
19868;DHT22;10096;51.112;6.776;2023-07-16T07:18:51;30.70;99.90
19868;DHT22;10096;51.112;6.776;2023-07-16T07:21:18;31.00;99.90
19868;DHT22;10096;51.112;6.776;2023-07-16T07:23:45;30.30;99.90
19868;DHT22;10096;51.112;6.776;2023-07-16T07:26:12;30.20;99.90
19868;DHT22;10096;51.112;6.776;2023-07-16T07:28:39;30.70;99.90
19868;DHT22;10096;51.112;6.776;2023-07-16T07:31:10;30.40;99.90
19868;DHT22;10096;51.112;6.776;2023-07-16T07:33:39;30.20;99.90
19868;DHT22;10096;51.112;6.776;2023-07-16T07:36:10;29.70;99.90
19868;DHT22;10096;51.112;6.776;2023-07-16T07:38:41;29.80;99.90
19868;DHT22;10096;51.112;6.776;2023-07-16T07:41:08;29.80;99.90
19868;DHT22;10096;51.112;6.776;2023-07-16T07:43:36;29.70;99.90
19868;DHT22;10096;51.112;6.776;2023-07-16T07:46:03;29.90;99.90
19868;DHT22;10096;51.112;6.776;2023-07-16T07:48:32;30.50;99.90
19868;DHT22;10096;51.112;6.776;2023-07-16T07:50:59;29.90;99.90
19868;DHT22;10096;51.112;6.776;2023-07-16T07:53:26;29.40;99.90
19868;DHT22;10096;51.112;6.776;2023-07-16T07:55:54;30.30;99.90
19868;DHT22;10096;51.112;6.776;2023-07-16T07:58:23;31.00;99.90
19868;DHT22;10096;51.112;6.776;2023-07-16T08:00:50;31.00;99.90
19868;DHT22;10096;51.112;6.776;2023-07-16T08:03:17;31.40;99.90
19868;DHT22;10096;51.112;6.776;2023-07-16T08:05:48;31.80;99.90
19868;DHT22;10096;51.112;6.776;2023-07-16T08:08:15;30.20;99.90
19868;DHT22;10096;51.112;6.776;2023-07-16T08:10:44;29.00;99.90
19868;DHT22;10096;51.112;6.776;2023-07-16T08:13:12;29.10;99.90
19868;DHT22;10096;51.112;6.776;2023-07-16T08:15:39;28.90;99.90
19868;DHT22;10096;51.112;6.776;2023-07-16T08:18:06;28.60;99.90
19868;DHT22;10096;51.112;6.776;2023-07-16T08:20:33;29.20;99.90
19868;DHT22;10096;51.112;6.776;2023-07-16T08:23:01;29.30;99.90
19868;DHT22;10096;51.112;6.776;2023-07-16T08:25:30;29.70;99.90
19868;DHT22;10096;51.112;6.776;2023-07-16T08:27:57;29.50;99.90
19868;DHT22;10096;51.112;6.776;2023-07-16T08:30:24;29.40;99.90
19868;DHT22;10096;51.112;6.776;2023-07-16T08:32:51;29.60;99.90
19868;DHT22;10096;51.112;6.776;2023-07-16T08:35:18;30.10;99.90
19868;DHT22;10096;51.112;6.776;2023-07-16T08:37:45;28.60;99.90
19868;DHT22;10096;51.112;6.776;2023-07-16T08:40:14;29.00;99.90
19868;DHT22;10096;51.112;6.776;2023-07-16T08:42:44;29.70;99.90
19868;DHT22;10096;51.112;6.776;2023-07-16T08:45:12;29.70;99.90
19868;DHT22;10096;51.112;6.776;2023-07-16T08:47:39;29.90;99.90
19868;DHT22;10096;51.112;6.776;2023-07-16T08:50:07;29.60;99.90
19868;DHT22;10096;51.112;6.776;2023-07-16T08:52:34;30.00;99.90
19868;DHT22;10096;51.112;6.776;2023-07-16T08:55:01;29.70;99.90
19868;DHT22;10096;51.112;6.776;2023-07-16T08:57:30;29.50;99.90
19868;DHT22;10096;51.112;6.776;2023-07-16T08:59:58;29.10;99.90
19868;DHT22;10096;51.112;6.776;2023-07-16T09:02:25;29.50;99.90
19868;DHT22;10096;51.112;6.776;2023-07-16T09:04:53;29.60;99.90
19868;DHT22;10096;51.112;6.776;2023-07-16T09:07:20;29.00;99.90
19868;DHT22;10096;51.112;6.776;2023-07-16T09:09:55;28.40;99.90
19868;DHT22;10096;51.112;6.776;2023-07-16T09:12:24;27.80;99.90
19868;DHT22;10096;51.112;6.776;2023-07-16T09:14:53;27.40;99.90
19868;DHT22;10096;51.112;6.776;2023-07-16T09:17:21;27.30;99.90
19868;DHT22;10096;51.112;6.776;2023-07-16T09:19:50;26.70;99.90
19868;DHT22;10096;51.112;6.776;2023-07-16T09:22:17;26.30;99.90
19868;DHT22;10096;51.112;6.776;2023-07-16T09:24:45;26.20;99.90
19868;DHT22;10096;51.112;6.776;2023-07-16T09:27:13;25.70;99.90
19868;DHT22;10096;51.112;6.776;2023-07-16T09:29:41;26.20;99.90
19868;DHT22;10096;51.112;6.776;2023-07-16T09:32:10;26.20;99.90
19868;DHT22;10096;51.112;6.776;2023-07-16T09:34:37;26.80;99.90
19868;DHT22;10096;51.112;6.776;2023-07-16T09:37:05;26.40;99.90
19868;DHT22;10096;51.112;6.776;2023-07-16T09:39:32;26.00;99.90
19868;DHT22;10096;51.112;6.776;2023-07-16T09:42:00;26.20;99.90
19868;DHT22;10096;51.112;6.776;2023-07-16T09:44:29;26.70;99.90
19868;DHT22;10096;51.112;6.776;2023-07-16T09:46:57;27.30;99.90
19868;DHT22;10096;51.112;6.776;2023-07-16T09:49:28;27.30;99.90
19868;DHT22;10096;51.112;6.776;2023-07-16T09:51:56;27.20;99.90
19868;DHT22;10096;51.112;6.776;2023-07-16T09:54:25;27.20;99.90
19868;DHT22;10096;51.112;6.776;2023-07-16T09:56:56;27.50;99.90
19868;DHT22;10096;51.112;6.776;2023-07-16T09:59:27;27.90;99.90
19868;DHT22;10096;51.112;6.776;2023-07-16T10:01:55;27.50;99.90
19868;DHT22;10096;51.112;6.776;2023-07-16T10:04:24;27.20;99.90
19868;DHT22;10096;51.112;6.776;2023-07-16T10:06:53;27.20;99.90
19868;DHT22;10096;51.112;6.776;2023-07-16T10:09:39;27.70;99.90
19868;DHT22;10096;51.112;6.776;2023-07-16T10:12:17;27.50;99.90
19868;DHT22;10096;51.112;6.776;2023-07-16T10:14:46;27.80;99.90
19868;DHT22;10096;51.112;6.776;2023-07-16T10:17:18;28.00;99.90
19868;DHT22;10096;51.112;6.776;2023-07-16T10:19:51;28.00;99.90
19868;DHT22;10096;51.112;6.776;2023-07-16T10:22:18;28.00;99.90
19868;DHT22;10096;51.112;6.776;2023-07-16T10:24:51;27.70;99.90
19868;DHT22;10096;51.112;6.776;2023-07-16T10:27:32;27.80;99.90
19868;DHT22;10096;51.112;6.776;2023-07-16T10:30:00;28.20;99.90
19868;DHT22;10096;51.112;6.776;2023-07-16T10:32:30;28.40;99.90
19868;DHT22;10096;51.112;6.776;2023-07-16T10:35:00;28.30;99.90
19868;DHT22;10096;51.112;6.776;2023-07-16T10:37:27;28.40;99.90
19868;DHT22;10096;51.112;6.776;2023-07-16T10:39:56;28.50;99.90
19868;DHT22;10096;51.112;6.776;2023-07-16T10:42:24;28.30;99.90
19868;DHT22;10096;51.112;6.776;2023-07-16T10:44:52;28.20;99.90
19868;DHT22;10096;51.112;6.776;2023-07-16T10:47:22;28.10;99.90
19868;DHT22;10096;51.112;6.776;2023-07-16T10:49:49;28.00;99.90
19868;DHT22;10096;51.112;6.776;2023-07-16T10:52:22;28.30;99.90
19868;DHT22;10096;51.112;6.776;2023-07-16T10:54:48;28.20;99.90
19868;DHT22;10096;51.112;6.776;2023-07-16T10:57:16;28.30;99.90
19868;DHT22;10096;51.112;6.776;2023-07-16T10:59:45;28.70;99.90
19868;DHT22;10096;51.112;6.776;2023-07-16T11:02:32;28.80;99.90
19868;DHT22;10096;51.112;6.776;2023-07-16T11:04:59;28.60;99.90
19868;DHT22;10096;51.112;6.776;2023-07-16T11:07:28;28.80;99.90
19868;DHT22;10096;51.112;6.776;2023-07-16T11:09:55;28.80;99.90
19868;DHT22;10096;51.112;6.776;2023-07-16T11:12:23;28.50;99.90
19868;DHT22;10096;51.112;6.776;2023-07-16T11:14:52;28.80;99.90
19868;DHT22;10096;51.112;6.776;2023-07-16T11:17:20;28.90;99.90
19868;DHT22;10096;51.112;6.776;2023-07-16T11:19:50;28.80;99.90
19868;DHT22;10096;51.112;6.776;2023-07-16T11:22:18;28.60;99.90
19868;DHT22;10096;51.112;6.776;2023-07-16T11:24:48;28.70;99.90
19868;DHT22;10096;51.112;6.776;2023-07-16T11:27:17;28.90;99.90
19868;DHT22;10096;51.112;6.776;2023-07-16T11:29:46;28.90;99.90
19868;DHT22;10096;51.112;6.776;2023-07-16T11:32:14;28.70;99.90
19868;DHT22;10096;51.112;6.776;2023-07-16T11:34:54;29.00;99.90
19868;DHT22;10096;51.112;6.776;2023-07-16T11:37:24;29.20;99.90
19868;DHT22;10096;51.112;6.776;2023-07-16T11:39:55;29.50;99.90
19868;DHT22;10096;51.112;6.776;2023-07-16T11:42:23;29.60;99.90
19868;DHT22;10096;51.112;6.776;2023-07-16T11:44:51;29.30;99.90
19868;DHT22;10096;51.112;6.776;2023-07-16T11:47:18;29.40;99.90
19868;DHT22;10096;51.112;6.776;2023-07-16T11:49:45;29.50;99.90
19868;DHT22;10096;51.112;6.776;2023-07-16T11:52:14;29.40;99.90
19868;DHT22;10096;51.112;6.776;2023-07-16T11:54:40;29.20;99.90
19868;DHT22;10096;51.112;6.776;2023-07-16T11:57:07;29.10;99.90
19868;DHT22;10096;51.112;6.776;2023-07-16T11:59:36;29.10;99.90
19868;DHT22;10096;51.112;6.776;2023-07-16T12:02:07;29.10;99.90
19868;DHT22;10096;51.112;6.776;2023-07-16T12:04:36;29.10;99.90
19868;DHT22;10096;51.112;6.776;2023-07-16T12:07:06;29.00;99.90
19868;DHT22;10096;51.112;6.776;2023-07-16T12:09:34;28.80;99.90
19868;DHT22;10096;51.112;6.776;2023-07-16T12:12:01;28.60;99.90
19868;DHT22;10096;51.112;6.776;2023-07-16T12:14:30;28.80;99.90
19868;DHT22;10096;51.112;6.776;2023-07-16T12:16:57;29.00;99.90
19868;DHT22;10096;51.112;6.776;2023-07-16T12:19:24;29.20;99.90
19868;DHT22;10096;51.112;6.776;2023-07-16T12:21:52;29.00;99.90
19868;DHT22;10096;51.112;6.776;2023-07-16T12:24:21;29.00;99.90
19868;DHT22;10096;51.112;6.776;2023-07-16T12:26:49;29.10;99.90
19868;DHT22;10096;51.112;6.776;2023-07-16T12:29:16;28.80;99.90
19868;DHT22;10096;51.112;6.776;2023-07-16T12:31:46;28.70;99.90
19868;DHT22;10096;51.112;6.776;2023-07-16T12:34:14;28.70;99.90
19868;DHT22;10096;51.112;6.776;2023-07-16T12:36:40;28.40;99.90
19868;DHT22;10096;51.112;6.776;2023-07-16T12:39:07;28.80;99.90
19868;DHT22;10096;51.112;6.776;2023-07-16T12:41:35;29.00;99.90
19868;DHT22;10096;51.112;6.776;2023-07-16T12:44:03;29.00;99.90
19868;DHT22;10096;51.112;6.776;2023-07-16T12:46:31;28.80;99.90
19868;DHT22;10096;51.112;6.776;2023-07-16T12:48:58;29.00;99.90
19868;DHT22;10096;51.112;6.776;2023-07-16T12:51:25;29.20;99.90
19868;DHT22;10096;51.112;6.776;2023-07-16T12:53:52;28.80;99.90
19868;DHT22;10096;51.112;6.776;2023-07-16T12:56:19;28.90;99.90
19868;DHT22;10096;51.112;6.776;2023-07-16T12:58:47;29.20;99.90
19868;DHT22;10096;51.112;6.776;2023-07-16T13:01:15;29.50;99.90
19868;DHT22;10096;51.112;6.776;2023-07-16T13:03:44;29.70;99.90
19868;DHT22;10096;51.112;6.776;2023-07-16T13:06:15;30.00;99.90
19868;DHT22;10096;51.112;6.776;2023-07-16T13:08:43;29.70;99.90
19868;DHT22;10096;51.112;6.776;2023-07-16T13:11:12;29.30;99.90
19868;DHT22;10096;51.112;6.776;2023-07-16T13:13:39;28.90;99.90
19868;DHT22;10096;51.112;6.776;2023-07-16T13:16:12;29.00;99.90
19868;DHT22;10096;51.112;6.776;2023-07-16T13:18:41;28.80;99.90
19868;DHT22;10096;51.112;6.776;2023-07-16T13:21:08;28.60;99.90
19868;DHT22;10096;51.112;6.776;2023-07-16T13:23:35;28.80;99.90
19868;DHT22;10096;51.112;6.776;2023-07-16T13:26:02;29.10;99.90
19868;DHT22;10096;51.112;6.776;2023-07-16T13:28:29;29.00;99.90
19868;DHT22;10096;51.112;6.776;2023-07-16T13:30:56;28.90;99.90
19868;DHT22;10096;51.112;6.776;2023-07-16T13:33:23;28.90;99.90
19868;DHT22;10096;51.112;6.776;2023-07-16T13:35:52;29.00;99.90
19868;DHT22;10096;51.112;6.776;2023-07-16T13:38:19;29.00;99.90
19868;DHT22;10096;51.112;6.776;2023-07-16T13:40:46;29.00;99.90
19868;DHT22;10096;51.112;6.776;2023-07-16T13:43:13;28.80;99.90
19868;DHT22;10096;51.112;6.776;2023-07-16T13:45:40;28.70;99.90
19868;DHT22;10096;51.112;6.776;2023-07-16T13:48:08;28.50;99.90
19868;DHT22;10096;51.112;6.776;2023-07-16T13:50:35;28.70;99.90
19868;DHT22;10096;51.112;6.776;2023-07-16T13:53:04;29.10;99.90
19868;DHT22;10096;51.112;6.776;2023-07-16T13:55:31;29.20;99.90
19868;DHT22;10096;51.112;6.776;2023-07-16T13:57:58;29.10;99.90
19868;DHT22;10096;51.112;6.776;2023-07-16T14:00:25;28.90;99.90
19868;DHT22;10096;51.112;6.776;2023-07-16T14:02:52;28.80;99.90
19868;DHT22;10096;51.112;6.776;2023-07-16T14:05:19;28.80;99.90
19868;DHT22;10096;51.112;6.776;2023-07-16T14:07:49;28.70;99.90
19868;DHT22;10096;51.112;6.776;2023-07-16T14:10:18;28.70;99.90
19868;DHT22;10096;51.112;6.776;2023-07-16T14:12:45;28.90;99.90
19868;DHT22;10096;51.112;6.776;2023-07-16T14:15:15;28.80;99.90
19868;DHT22;10096;51.112;6.776;2023-07-16T14:17:42;28.80;99.90
19868;DHT22;10096;51.112;6.776;2023-07-16T14:20:10;28.80;99.90
19868;DHT22;10096;51.112;6.776;2023-07-16T14:22:37;28.90;99.90
19868;DHT22;10096;51.112;6.776;2023-07-16T14:25:05;28.60;99.90
19868;DHT22;10096;51.112;6.776;2023-07-16T14:27:33;28.50;99.90
19868;DHT22;10096;51.112;6.776;2023-07-16T14:30:00;28.30;99.90
19868;DHT22;10096;51.112;6.776;2023-07-16T14:32:30;28.20;99.90
19868;DHT22;10096;51.112;6.776;2023-07-16T14:34:59;28.40;99.90
19868;DHT22;10096;51.112;6.776;2023-07-16T14:37:26;28.30;99.90
19868;DHT22;10096;51.112;6.776;2023-07-16T14:39:54;28.40;99.90
19868;DHT22;10096;51.112;6.776;2023-07-16T14:42:21;28.40;99.90
19868;DHT22;10096;51.112;6.776;2023-07-16T14:44:50;28.50;99.90
19868;DHT22;10096;51.112;6.776;2023-07-16T14:47:17;28.60;99.90
19868;DHT22;10096;51.112;6.776;2023-07-16T14:49:44;28.60;99.90
19868;DHT22;10096;51.112;6.776;2023-07-16T14:52:11;29.00;99.90
19868;DHT22;10096;51.112;6.776;2023-07-16T14:54:38;29.10;99.90
19868;DHT22;10096;51.112;6.776;2023-07-16T14:57:08;29.10;99.90
19868;DHT22;10096;51.112;6.776;2023-07-16T14:59:35;29.10;99.90
19868;DHT22;10096;51.112;6.776;2023-07-16T15:02:06;29.20;99.90
19868;DHT22;10096;51.112;6.776;2023-07-16T15:04:35;29.20;99.90
19868;DHT22;10096;51.112;6.776;2023-07-16T15:07:02;29.00;99.90
19868;DHT22;10096;51.112;6.776;2023-07-16T15:09:30;28.80;99.90
19868;DHT22;10096;51.112;6.776;2023-07-16T15:11:57;28.70;99.90
19868;DHT22;10096;51.112;6.776;2023-07-16T15:14:27;28.70;99.90
19868;DHT22;10096;51.112;6.776;2023-07-16T15:16:55;28.10;99.90
19868;DHT22;10096;51.112;6.776;2023-07-16T15:19:24;28.30;99.90
19868;DHT22;10096;51.112;6.776;2023-07-16T15:21:50;28.60;99.90
19868;DHT22;10096;51.112;6.776;2023-07-16T15:24:17;28.70;99.90
19868;DHT22;10096;51.112;6.776;2023-07-16T15:26:44;28.90;99.90
19868;DHT22;10096;51.112;6.776;2023-07-16T15:29:11;29.10;99.90
19868;DHT22;10096;51.112;6.776;2023-07-16T15:31:38;29.10;99.90
19868;DHT22;10096;51.112;6.776;2023-07-16T15:34:06;29.30;99.90
19868;DHT22;10096;51.112;6.776;2023-07-16T15:36:34;29.20;99.90
19868;DHT22;10096;51.112;6.776;2023-07-16T15:39:05;29.00;99.90